createdAt,value
2022-12-14T00:01:49.627Z,2.30
2022-12-14T00:04:37.335Z,2.50
2022-12-14T00:07:24.886Z,2.50
2022-12-14T00:10:13.055Z,2.50
2022-12-14T00:13:02.246Z,2.60
2022-12-14T00:15:49.849Z,2.90
2022-12-14T00:18:37.879Z,2.90
2022-12-14T00:21:27.009Z,2.80
2022-12-14T00:24:14.640Z,2.70
2022-12-14T00:27:02.245Z,2.90
2022-12-14T00:29:49.790Z,3.00
2022-12-14T00:32:37.350Z,2.80
2022-12-14T00:35:24.935Z,2.90
2022-12-14T00:38:12.474Z,2.80
2022-12-14T00:41:00.135Z,2.90
2022-12-14T00:43:49.579Z,2.90
2022-12-14T00:46:37.573Z,2.80
2022-12-14T00:49:25.334Z,2.90
2022-12-14T00:52:12.860Z,2.60
2022-12-14T00:55:00.568Z,2.70
2022-12-14T00:57:48.076Z,2.70
2022-12-14T01:00:35.646Z,2.60
2022-12-14T01:03:23.170Z,2.50
2022-12-14T01:06:23.752Z,2.40
2022-12-14T01:09:11.540Z,2.50
2022-12-14T01:11:59.084Z,2.10
2022-12-14T01:14:46.597Z,1.90
2022-12-14T01:17:34.234Z,2.40
2022-12-14T01:20:21.919Z,2.30
2022-12-14T01:23:09.506Z,2.40
2022-12-14T01:25:59.699Z,2.20
2022-12-14T01:28:52.531Z,2.50
2022-12-14T01:31:40.180Z,2.50
2022-12-14T01:34:27.754Z,2.50
2022-12-14T01:37:16.551Z,2.10
2022-12-14T01:40:04.830Z,2.20
2022-12-14T01:42:52.380Z,2.40
2022-12-14T01:45:40.136Z,2.30
2022-12-14T01:48:27.691Z,2.30
2022-12-14T01:51:15.555Z,2.60
2022-12-14T01:54:08.953Z,2.50
2022-12-14T01:56:57.970Z,2.50
2022-12-14T01:59:47.614Z,2.70
2022-12-14T02:02:39.052Z,2.90
2022-12-14T02:05:28.636Z,2.80
2022-12-14T02:08:18.916Z,2.90
2022-12-14T02:11:06.646Z,2.90
2022-12-14T02:13:54.186Z,2.90
2022-12-14T02:16:42.415Z,2.90
2022-12-14T02:19:29.960Z,3.00
2022-12-14T02:23:04.070Z,3.20
2022-12-14T02:26:15.666Z,2.90
2022-12-14T02:29:58.803Z,3.10
2022-12-14T02:33:02.341Z,3.20
2022-12-14T02:36:18.873Z,3.00
2022-12-14T02:39:21.639Z,3.20
2022-12-14T02:42:15.410Z,3.40
2022-12-14T02:45:37.244Z,3.60
2022-12-14T02:48:39.720Z,3.60
2022-12-14T02:51:59.205Z,3.60
2022-12-14T02:55:23.639Z,3.30
2022-12-14T02:58:50.894Z,3.40
2022-12-14T03:01:41.047Z,3.60
2022-12-14T03:04:28.997Z,3.60
2022-12-14T03:07:33.980Z,3.30
2022-12-14T03:10:39.396Z,3.40
2022-12-14T03:13:42.401Z,3.30
2022-12-14T03:16:37.213Z,3.10
2022-12-14T03:19:39.483Z,3.20
2022-12-14T03:22:39.660Z,3.60
2022-12-14T03:26:05.244Z,3.80
2022-12-14T03:29:00.832Z,3.80
2022-12-14T03:31:59.015Z,3.90
2022-12-14T03:35:08.030Z,3.90
2022-12-14T03:38:02.657Z,3.90
2022-12-14T03:41:34.397Z,3.70
2022-12-14T03:44:49.531Z,3.40
2022-12-14T03:47:49.850Z,3.70
2022-12-14T03:50:50.155Z,3.60
2022-12-14T03:54:06.847Z,3.30
2022-12-14T03:57:19.724Z,3.70
2022-12-14T04:00:14.084Z,3.70
2022-12-14T04:03:39.406Z,3.60
2022-12-14T04:06:55.354Z,3.80
2022-12-14T04:09:58.557Z,3.80
2022-12-14T04:13:05.343Z,3.50
2022-12-14T04:16:17.913Z,3.60
2022-12-14T04:19:16.499Z,4.10
2022-12-14T04:22:22.488Z,4.00
2022-12-14T04:25:36.870Z,4.00
2022-12-14T04:29:16.214Z,4.10
2022-12-14T04:32:32.563Z,4.20
2022-12-14T04:35:26.084Z,4.10
2022-12-14T04:38:21.345Z,4.10
2022-12-14T04:41:19.362Z,3.90
2022-12-14T04:44:27.379Z,3.90
2022-12-14T04:47:17.878Z,4.00
2022-12-14T04:50:20.354Z,3.60
2022-12-14T04:53:21.011Z,4.10
2022-12-14T04:56:26.840Z,3.90
2022-12-14T04:59:14.336Z,4.00
2022-12-14T05:02:39.061Z,4.20
2022-12-14T05:05:40.525Z,3.80
2022-12-14T05:08:55.620Z,4.10
2022-12-14T05:12:14.143Z,4.10
2022-12-14T05:15:25.896Z,4.10
2022-12-14T05:18:14.259Z,4.40
2022-12-14T05:21:01.635Z,4.50
2022-12-14T05:23:49.032Z,4.20
2022-12-14T05:26:36.815Z,4.40
2022-12-14T05:29:24.221Z,4.20
2022-12-14T05:32:13.870Z,4.10
2022-12-14T05:35:03.474Z,3.70
2022-12-14T05:37:51.295Z,4.10
2022-12-14T05:40:39.694Z,3.90
2022-12-14T05:43:27.505Z,4.10
2022-12-14T05:46:15.312Z,4.40
2022-12-14T05:49:02.940Z,4.40
2022-12-14T05:51:50.395Z,4.50
2022-12-14T05:54:37.824Z,4.40
2022-12-14T05:57:25.304Z,4.60
2022-12-14T06:00:13.779Z,4.40
2022-12-14T06:03:01.212Z,4.50
2022-12-14T06:05:48.705Z,4.40
2022-12-14T06:08:42.315Z,4.20
2022-12-14T06:11:29.725Z,4.30
2022-12-14T06:14:17.521Z,4.50
2022-12-14T06:17:04.965Z,4.60
2022-12-14T06:19:52.464Z,4.60
2022-12-14T06:22:47.389Z,4.70
2022-12-14T06:25:35.182Z,4.80
2022-12-14T06:28:23.935Z,4.70
2022-12-14T06:31:26.122Z,4.60
2022-12-14T06:34:13.783Z,4.70
2022-12-14T06:37:01.224Z,4.60
2022-12-14T06:39:54.127Z,4.50
2022-12-14T06:42:41.995Z,4.60
2022-12-14T06:45:30.409Z,4.70
2022-12-14T06:48:17.764Z,4.80
2022-12-14T06:51:07.219Z,4.50
2022-12-14T06:53:57.280Z,4.90
2022-12-14T06:56:47.306Z,4.80
2022-12-14T06:59:34.764Z,4.70
2022-12-14T07:02:22.558Z,4.90
2022-12-14T07:05:10.475Z,4.90
2022-12-14T07:07:57.887Z,4.80
2022-12-14T07:10:45.315Z,4.40
2022-12-14T07:13:33.345Z,4.50
2022-12-14T07:16:26.379Z,4.80
2022-12-14T07:19:13.879Z,4.60
2022-12-14T07:22:04.237Z,4.80
2022-12-14T07:24:51.638Z,5.00
2022-12-14T07:27:39.094Z,5.10
2022-12-14T07:30:26.800Z,5.20
2022-12-14T07:33:14.189Z,5.20
2022-12-14T07:36:11.900Z,4.70
2022-12-14T07:38:59.401Z,4.60
2022-12-14T07:41:50.661Z,4.40
2022-12-14T07:44:38.175Z,4.70
2022-12-14T07:47:25.585Z,4.80
2022-12-14T07:50:14.384Z,4.30
2022-12-14T07:53:01.885Z,4.60
2022-12-14T07:55:49.345Z,4.70
2022-12-14T07:58:37.940Z,5.00
2022-12-14T08:01:30.103Z,5.10
2022-12-14T08:04:20.224Z,5.00
2022-12-14T08:07:08.056Z,4.70
2022-12-14T08:09:55.464Z,4.70
2022-12-14T08:12:42.865Z,5.40
2022-12-14T08:15:30.315Z,5.70
2022-12-14T08:18:17.844Z,5.90
2022-12-14T08:21:07.745Z,5.60
2022-12-14T08:23:56.426Z,5.70
2022-12-14T08:26:49.327Z,5.90
2022-12-14T08:29:37.478Z,5.90
2022-12-14T08:32:29.544Z,5.80
2022-12-14T08:35:20.139Z,5.80
2022-12-14T08:38:08.385Z,5.80
2022-12-14T08:40:55.855Z,6.00
2022-12-14T08:43:43.321Z,6.20
2022-12-14T08:46:34.532Z,6.40
2022-12-14T08:49:22.045Z,6.30
2022-12-14T08:52:11.629Z,6.20
2022-12-14T08:55:00.166Z,6.40
2022-12-14T08:57:48.096Z,6.10
2022-12-14T09:00:35.639Z,6.20
2022-12-14T09:03:25.456Z,6.20
2022-12-14T09:06:27.887Z,5.70
2022-12-14T09:09:16.734Z,5.80
2022-12-14T09:12:07.721Z,5.90
2022-12-14T09:14:55.162Z,6.50
2022-12-14T09:17:42.639Z,6.40
2022-12-14T09:20:30.104Z,6.20
2022-12-14T09:23:17.653Z,6.50
2022-12-14T09:26:11.409Z,6.80
2022-12-14T09:28:58.770Z,6.80
2022-12-14T09:31:46.341Z,6.30
2022-12-14T09:34:33.821Z,6.50
2022-12-14T09:37:21.259Z,6.00
2022-12-14T09:40:13.604Z,6.60
2022-12-14T09:43:40.784Z,6.60
2022-12-14T09:46:49.143Z,6.20
2022-12-14T09:49:54.189Z,6.50
2022-12-14T09:53:02.663Z,6.50
2022-12-14T09:55:56.999Z,7.10
2022-12-14T09:58:57.279Z,7.20
2022-12-14T10:02:35.980Z,7.40
2022-12-14T10:06:03.486Z,7.30
2022-12-14T10:09:25.663Z,7.50
2022-12-14T10:12:45.798Z,6.90
2022-12-14T10:15:41.951Z,7.60
2022-12-14T10:19:21.954Z,7.10
2022-12-14T10:22:25.915Z,7.50
2022-12-14T10:25:24.974Z,7.80
2022-12-14T10:28:27.921Z,7.70
2022-12-14T10:31:52.433Z,7.80
2022-12-14T10:34:43.746Z,7.40
2022-12-14T10:37:38.599Z,7.70
2022-12-14T10:40:35.222Z,7.80
2022-12-14T10:43:44.744Z,7.60
2022-12-14T10:47:08.536Z,7.70
2022-12-14T10:50:22.733Z,8.00
2022-12-14T10:53:19.920Z,8.00
2022-12-14T10:56:24.517Z,8.10
2022-12-14T10:59:21.480Z,7.30
2022-12-14T11:02:33.050Z,8.00
2022-12-14T11:06:07.881Z,8.50
2022-12-14T11:08:58.121Z,8.00
2022-12-14T11:11:47.048Z,8.30
2022-12-14T11:14:37.253Z,8.10
2022-12-14T11:17:44.624Z,8.30
2022-12-14T11:20:34.121Z,7.80
2022-12-14T11:23:37.442Z,7.90
2022-12-14T11:26:39.874Z,7.80
2022-12-14T11:29:40.020Z,8.00
2022-12-14T11:32:27.548Z,7.90
2022-12-14T11:35:20.734Z,7.80
2022-12-14T11:38:16.700Z,7.90
2022-12-14T11:41:10.976Z,7.70
2022-12-14T11:44:28.164Z,7.90
2022-12-14T11:47:22.345Z,8.20
2022-12-14T11:50:25.522Z,8.30
2022-12-14T11:53:20.140Z,7.50
2022-12-14T11:56:17.495Z,7.40
2022-12-14T11:59:05.333Z,7.30
2022-12-14T12:01:53.388Z,7.80
2022-12-14T12:04:49.569Z,8.00
2022-12-14T12:07:51.494Z,7.90
2022-12-14T12:10:50.145Z,8.10
2022-12-14T12:13:45.809Z,8.40
2022-12-14T12:16:37.379Z,8.00
2022-12-14T12:19:36.108Z,7.80
2022-12-14T12:22:25.650Z,8.20
2022-12-14T12:25:26.584Z,8.00
2022-12-14T12:28:34.173Z,8.30
2022-12-14T12:31:31.354Z,8.50
2022-12-14T12:34:37.984Z,8.50
2022-12-14T12:37:42.459Z,8.30
2022-12-14T12:40:40.685Z,8.70
2022-12-14T12:43:54.708Z,8.50
2022-12-14T12:47:26.051Z,8.60
2022-12-14T12:50:42.211Z,8.60
2022-12-14T12:53:44.520Z,8.60
2022-12-14T12:56:48.115Z,9.00
2022-12-14T12:59:48.369Z,9.40
2022-12-14T13:02:44.780Z,9.10
2022-12-14T13:05:47.449Z,9.00
2022-12-14T13:08:42.538Z,9.10
2022-12-14T13:11:39.399Z,9.30
2022-12-14T13:14:39.715Z,9.20
2022-12-14T13:17:37.512Z,9.10
2022-12-14T13:20:31.349Z,9.20
2022-12-14T13:23:44.102Z,9.30
2022-12-14T13:26:58.729Z,9.30
2022-12-14T13:30:14.849Z,8.90
2022-12-14T13:33:51.116Z,9.00
2022-12-14T13:37:09.691Z,9.20
2022-12-14T13:40:09.184Z,9.30
2022-12-14T13:43:43.225Z,9.20
2022-12-14T13:46:31.820Z,9.00
2022-12-14T13:49:22.457Z,9.10
2022-12-14T13:52:46.929Z,9.30
2022-12-14T13:55:48.156Z,9.40
2022-12-14T13:58:41.499Z,9.40
2022-12-14T14:01:47.153Z,9.40
2022-12-14T14:04:36.580Z,8.80
2022-12-14T14:07:23.995Z,9.30
2022-12-14T14:10:38.196Z,9.00
2022-12-14T14:13:28.640Z,8.80
2022-12-14T14:16:29.578Z,8.40
2022-12-14T14:19:26.864Z,8.30
2022-12-14T14:22:25.115Z,8.50
2022-12-14T14:26:19.038Z,8.80
2022-12-14T14:29:22.686Z,8.70
2022-12-14T14:32:38.160Z,9.10
2022-12-14T14:35:36.890Z,9.20
2022-12-14T14:38:31.221Z,8.90
2022-12-14T14:41:34.136Z,8.90
2022-12-14T14:44:43.001Z,8.90
2022-12-14T14:47:39.505Z,8.60
2022-12-14T14:50:37.374Z,8.60
2022-12-14T14:53:37.840Z,8.60
2022-12-14T14:56:38.468Z,8.60
2022-12-14T14:59:26.062Z,8.20
2022-12-14T15:02:30.618Z,8.20
2022-12-14T15:05:44.090Z,8.30
2022-12-14T15:08:45.107Z,8.60
2022-12-14T15:11:48.953Z,8.90
2022-12-14T15:14:46.691Z,8.80
2022-12-14T15:17:36.026Z,8.90
2022-12-14T15:20:32.690Z,9.00
2022-12-14T15:23:21.445Z,8.90
2022-12-14T15:26:28.599Z,8.80
2022-12-14T15:29:27.768Z,8.70
2022-12-14T15:32:23.597Z,8.30
2022-12-14T15:35:31.094Z,7.90
2022-12-14T15:38:34.409Z,8.20
2022-12-14T15:41:26.085Z,8.00
2022-12-14T15:44:22.729Z,8.60
2022-12-14T15:47:28.562Z,8.40
2022-12-14T15:50:26.849Z,8.10
2022-12-14T15:53:28.227Z,8.60
2022-12-14T15:56:30.022Z,8.60
2022-12-14T15:59:28.204Z,8.10
2022-12-14T16:02:38.200Z,8.10
2022-12-14T16:05:36.206Z,8.10
2022-12-14T16:08:24.079Z,8.00
2022-12-14T16:11:35.874Z,8.10
2022-12-14T16:14:44.169Z,7.80
2022-12-14T16:17:36.025Z,7.90
2022-12-14T16:20:31.881Z,8.00
2022-12-14T16:23:19.486Z,7.90
2022-12-14T16:26:16.195Z,7.50
2022-12-14T16:29:20.236Z,7.60
2022-12-14T16:32:16.511Z,7.90
2022-12-14T16:35:04.414Z,7.90
2022-12-14T16:37:58.376Z,7.70
2022-12-14T16:40:48.748Z,7.80
2022-12-14T16:43:41.979Z,7.80
2022-12-14T16:46:29.490Z,8.20
2022-12-14T16:49:55.391Z,8.10
2022-12-14T16:52:43.277Z,8.60
2022-12-14T16:55:31.061Z,8.60
2022-12-14T16:58:18.559Z,8.70
2022-12-14T17:01:09.421Z,8.80
2022-12-14T17:04:05.335Z,8.60
2022-12-14T17:06:56.242Z,8.80
2022-12-14T17:09:43.789Z,8.70
2022-12-14T17:12:31.406Z,8.60
2022-12-14T17:15:22.574Z,8.30
2022-12-14T17:18:11.274Z,8.30
2022-12-14T17:20:59.640Z,8.50
2022-12-14T17:23:47.402Z,8.60
2022-12-14T17:26:34.865Z,8.70
2022-12-14T17:29:27.440Z,8.80
2022-12-14T17:32:16.976Z,8.80
2022-12-14T17:35:05.074Z,8.90
2022-12-14T17:37:53.127Z,8.90
2022-12-14T17:40:41.485Z,8.90
2022-12-14T17:43:29.375Z,8.90
2022-12-14T17:46:17.236Z,8.80
2022-12-14T17:49:07.006Z,8.90
2022-12-14T17:51:54.593Z,8.90
2022-12-14T17:54:42.081Z,8.90
2022-12-14T17:57:29.555Z,9.00
2022-12-14T18:00:47.797Z,9.00
2022-12-14T18:03:39.666Z,9.00
2022-12-14T18:06:27.193Z,9.00
2022-12-14T18:09:16.270Z,9.00
2022-12-14T18:15:36.832Z,9.20
2022-12-14T18:18:27.680Z,9.20
2022-12-14T18:21:23.220Z,9.10
2022-12-14T18:24:15.342Z,9.10
2022-12-14T18:27:02.938Z,8.80
2022-12-14T18:29:50.416Z,9.00
2022-12-14T18:32:37.870Z,9.00
2022-12-14T18:35:30.156Z,9.00
2022-12-14T18:38:18.349Z,9.00
2022-12-14T18:41:06.243Z,9.00
2022-12-14T18:43:55.280Z,9.00
2022-12-14T18:46:42.817Z,9.00
2022-12-14T18:49:36.717Z,9.00
2022-12-14T18:52:24.214Z,9.00
2022-12-14T18:55:20.353Z,9.10
2022-12-14T18:58:07.882Z,9.00
2022-12-14T19:01:00.745Z,9.00
2022-12-14T19:03:48.903Z,8.90
2022-12-14T19:06:45.168Z,9.00
2022-12-14T19:09:33.485Z,8.90
2022-12-14T19:12:20.909Z,8.70
2022-12-14T19:15:20.771Z,8.80
2022-12-14T19:18:08.285Z,9.00
2022-12-14T19:20:56.267Z,9.00
2022-12-14T19:23:43.807Z,9.00
2022-12-14T19:26:31.476Z,9.10
2022-12-14T19:29:18.955Z,9.20
2022-12-14T19:32:06.533Z,9.00
2022-12-14T19:34:54.508Z,9.00
2022-12-14T19:37:41.970Z,9.20
2022-12-14T19:40:29.390Z,9.20
2022-12-14T19:43:16.860Z,9.10
2022-12-14T19:46:10.306Z,8.90
2022-12-14T19:48:59.966Z,9.00
2022-12-14T19:51:47.418Z,9.00
2022-12-14T19:54:35.099Z,8.80
2022-12-14T19:57:22.956Z,8.80
2022-12-14T20:00:11.939Z,9.00
2022-12-14T20:02:59.653Z,9.00
2022-12-14T20:05:59.741Z,9.10
2022-12-14T20:08:49.243Z,9.00
2022-12-14T20:11:37.245Z,9.10
2022-12-14T20:14:24.810Z,9.10
2022-12-14T20:17:12.278Z,9.10
2022-12-14T20:19:59.900Z,9.10
2022-12-14T20:22:48.175Z,9.00
2022-12-14T20:25:35.651Z,9.20
2022-12-14T20:28:23.149Z,9.10
2022-12-14T20:31:15.316Z,9.00
2022-12-14T20:34:06.150Z,9.10
2022-12-14T20:36:53.730Z,9.10
2022-12-14T20:39:41.164Z,9.10
2022-12-14T20:42:29.474Z,9.10
2022-12-14T20:45:17.237Z,9.10
2022-12-14T20:48:05.775Z,9.10
2022-12-14T20:50:59.022Z,9.00
2022-12-14T20:53:49.420Z,9.00
2022-12-14T20:56:37.599Z,8.90
2022-12-14T20:59:25.254Z,8.90
2022-12-14T21:02:24.853Z,8.90
2022-12-14T21:05:12.439Z,9.00
2022-12-14T21:08:00.084Z,9.10
2022-12-14T21:10:47.516Z,8.90
2022-12-14T21:13:34.921Z,9.00
2022-12-14T21:16:22.452Z,9.00
2022-12-14T21:19:15.750Z,9.00
2022-12-14T21:22:10.615Z,8.90
2022-12-14T21:25:04.067Z,9.00
2022-12-14T21:27:52.044Z,9.00
2022-12-14T21:30:39.465Z,8.90
2022-12-14T21:33:27.132Z,8.90
2022-12-14T21:36:15.042Z,8.90
2022-12-14T21:39:03.648Z,9.00
2022-12-14T21:42:09.834Z,8.90
2022-12-14T21:44:58.023Z,8.90
2022-12-14T21:47:45.430Z,8.90
2022-12-14T21:50:33.074Z,8.90
2022-12-14T21:53:20.645Z,8.80
2022-12-14T21:56:27.775Z,8.90
2022-12-14T21:59:22.434Z,8.90
2022-12-14T22:02:20.204Z,8.90
2022-12-14T22:05:08.544Z,8.80
2022-12-14T22:07:56.039Z,9.00
2022-12-14T22:10:43.536Z,8.90
2022-12-14T22:13:33.040Z,8.80
2022-12-14T22:16:21.254Z,8.80
2022-12-14T22:19:21.480Z,8.90
2022-12-14T22:22:15.625Z,8.80
2022-12-14T22:25:03.910Z,8.70
2022-12-14T22:27:51.445Z,8.80
2022-12-14T22:30:38.903Z,8.80
2022-12-14T22:33:26.492Z,8.90
2022-12-14T22:36:17.737Z,8.90
2022-12-14T22:39:05.179Z,8.90
2022-12-14T22:41:52.584Z,9.00
2022-12-14T22:44:40.419Z,8.90
2022-12-14T22:47:28.815Z,8.90
2022-12-14T22:50:16.429Z,9.00
2022-12-14T22:53:04.386Z,9.00
2022-12-14T22:55:52.851Z,8.90
2022-12-14T22:58:49.510Z,9.00
2022-12-14T23:01:39.687Z,9.00
2022-12-14T23:04:27.296Z,9.00
2022-12-14T23:07:14.910Z,8.90
2022-12-14T23:10:21.199Z,8.90
2022-12-14T23:13:27.688Z,8.80
2022-12-14T23:16:34.290Z,8.90
2022-12-14T23:19:40.659Z,9.00
2022-12-14T23:22:47.004Z,9.10
2022-12-14T23:25:56.206Z,9.10
2022-12-14T23:29:02.500Z,9.00
2022-12-14T23:32:08.772Z,9.00
2022-12-14T23:35:14.924Z,9.00
2022-12-14T23:38:27.962Z,9.10
2022-12-14T23:41:34.200Z,9.10
2022-12-14T23:44:40.446Z,9.10
2022-12-14T23:47:46.684Z,9.00
2022-12-14T23:50:55.420Z,9.20
2022-12-14T23:54:01.493Z,9.00
2022-12-14T23:57:07.854Z,9.10
